createdAt,value
2022-09-14T00:01:25.714Z,12.90
2022-09-14T00:04:02.407Z,12.90
2022-09-14T00:06:30.658Z,12.90
2022-09-14T00:09:00.643Z,12.90
2022-09-14T00:11:29.964Z,12.80
2022-09-14T00:13:58.499Z,12.80
2022-09-14T00:16:29.919Z,12.90
2022-09-14T00:19:05.845Z,12.90
2022-09-14T00:21:35.046Z,12.90
2022-09-14T00:24:01.956Z,13.00
2022-09-14T00:26:28.568Z,13.00
2022-09-14T00:28:57.963Z,13.00
2022-09-14T00:31:26.259Z,13.00
2022-09-14T00:33:53.627Z,13.00
2022-09-14T00:36:26.667Z,13.00
2022-09-14T00:38:58.033Z,12.90
2022-09-14T00:41:27.248Z,12.90
2022-09-14T00:44:01.719Z,12.80
2022-09-14T00:46:30.662Z,12.80
2022-09-14T00:49:00.760Z,12.80
2022-09-14T00:51:29.786Z,12.80
2022-09-14T00:53:56.756Z,12.90
2022-09-14T00:56:23.427Z,12.90
2022-09-14T00:58:51.883Z,12.90
2022-09-14T01:01:18.833Z,12.90
2022-09-14T01:03:45.640Z,12.90
2022-09-14T01:06:12.171Z,13.00
2022-09-14T01:09:12.478Z,13.00
2022-09-14T01:12:04.174Z,13.00
2022-09-14T01:15:13.172Z,12.90
2022-09-14T01:18:07.851Z,12.90
2022-09-14T01:21:03.068Z,13.00
2022-09-14T01:23:50.687Z,13.00
2022-09-14T01:26:35.832Z,12.90
2022-09-14T01:29:20.904Z,13.00
2022-09-14T01:32:06.197Z,13.00
2022-09-14T01:34:38.563Z,13.00
2022-09-14T01:37:12.798Z,13.00
2022-09-14T01:39:46.052Z,13.00
2022-09-14T01:42:13.463Z,12.90
2022-09-14T01:44:45.108Z,12.90
2022-09-14T01:47:49.131Z,12.90
2022-09-14T01:50:44.834Z,12.90
2022-09-14T01:53:21.637Z,13.00
2022-09-14T01:56:22.047Z,12.90
2022-09-14T01:59:02.634Z,13.00
2022-09-14T02:01:35.630Z,13.00
2022-09-14T02:04:06.628Z,12.90
2022-09-14T02:06:39.833Z,12.90
2022-09-14T02:09:09.054Z,12.90
2022-09-14T02:11:36.132Z,12.80
2022-09-14T02:14:02.877Z,12.80
2022-09-14T02:16:29.794Z,12.70
2022-09-14T02:18:56.867Z,12.80
2022-09-14T02:21:26.832Z,12.80
2022-09-14T02:23:54.034Z,12.80
2022-09-14T02:26:22.562Z,12.70
2022-09-14T02:28:49.644Z,12.70
2022-09-14T02:31:46.602Z,12.60
2022-09-14T02:34:18.839Z,12.60
2022-09-14T02:37:12.527Z,12.70
2022-09-14T02:39:45.364Z,12.60
2022-09-14T02:42:27.003Z,12.60
2022-09-14T02:45:11.992Z,12.60
2022-09-14T02:48:13.833Z,12.60
2022-09-14T02:50:43.663Z,12.60
2022-09-14T02:53:24.500Z,12.60
2022-09-14T02:56:03.847Z,12.50
2022-09-14T02:58:36.359Z,12.50
2022-09-14T03:01:04.660Z,12.60
2022-09-14T03:03:35.477Z,12.60
2022-09-14T03:06:02.587Z,12.60
2022-09-14T03:08:29.668Z,12.60
2022-09-14T03:10:56.357Z,12.50
2022-09-14T03:13:23.459Z,12.50
2022-09-14T03:15:50.840Z,12.50
2022-09-14T03:18:17.979Z,12.50
2022-09-14T03:20:44.808Z,12.40
2022-09-14T03:23:12.313Z,12.40
2022-09-14T03:25:44.489Z,12.40
2022-09-14T03:28:12.887Z,12.30
2022-09-14T03:30:39.879Z,12.40
2022-09-14T03:33:06.557Z,12.40
2022-09-14T03:35:33.432Z,12.40
2022-09-14T03:38:00.824Z,12.40
2022-09-14T03:40:27.937Z,12.40
2022-09-14T03:42:54.715Z,12.40
2022-09-14T03:45:21.804Z,12.40
2022-09-14T03:47:49.366Z,12.40
2022-09-14T03:50:16.950Z,12.40
2022-09-14T03:52:43.542Z,12.30
2022-09-14T03:55:10.934Z,12.30
2022-09-14T03:57:37.799Z,12.30
2022-09-14T04:00:06.672Z,12.30
2022-09-14T04:02:33.394Z,12.20
2022-09-14T04:05:35.045Z,12.20
2022-09-14T04:08:01.887Z,12.20
2022-09-14T04:10:28.697Z,12.10
2022-09-14T04:12:55.335Z,12.20
2022-09-14T04:15:21.931Z,12.10
2022-09-14T04:17:48.655Z,12.10
2022-09-14T04:20:15.534Z,12.10
2022-09-14T04:22:42.106Z,12.10
2022-09-14T04:25:08.993Z,12.10
2022-09-14T04:27:35.743Z,12.00
2022-09-14T04:30:02.374Z,11.90
2022-09-14T04:32:34.087Z,11.80
2022-09-14T04:35:01.281Z,11.80
2022-09-14T04:37:31.037Z,11.70
2022-09-14T04:39:57.681Z,11.70
2022-09-14T04:42:24.497Z,11.70
2022-09-14T04:44:51.235Z,11.70
2022-09-14T04:47:17.857Z,11.80
2022-09-14T04:49:44.606Z,11.80
2022-09-14T04:52:11.314Z,11.80
2022-09-14T04:54:37.908Z,11.70
2022-09-14T04:57:04.777Z,11.70
2022-09-14T04:59:31.583Z,11.60
2022-09-14T05:01:58.313Z,11.70
2022-09-14T05:04:25.043Z,11.70
2022-09-14T05:06:51.604Z,11.70
2022-09-14T05:09:18.891Z,11.70
2022-09-14T05:11:45.887Z,11.80
2022-09-14T05:14:13.879Z,11.80
2022-09-14T05:16:41.901Z,11.80
2022-09-14T05:19:12.877Z,11.80
2022-09-14T05:21:39.462Z,11.90
2022-09-14T05:24:26.396Z,11.90
2022-09-14T05:26:58.207Z,12.00
2022-09-14T05:29:26.870Z,12.00
2022-09-14T05:31:53.451Z,12.00
2022-09-14T05:34:20.143Z,12.10
2022-09-14T05:36:46.819Z,12.10
2022-09-14T05:39:13.465Z,12.20
2022-09-14T05:41:40.504Z,12.20
2022-09-14T05:44:07.496Z,12.30
2022-09-14T05:46:34.532Z,12.40
2022-09-14T05:49:01.205Z,12.40
2022-09-14T05:51:28.083Z,12.40
2022-09-14T05:53:56.990Z,12.50
2022-09-14T05:56:26.307Z,12.50
2022-09-14T05:58:53.400Z,12.50
2022-09-14T06:01:23.034Z,12.60
2022-09-14T06:03:50.615Z,12.60
2022-09-14T06:06:19.988Z,12.70
2022-09-14T06:08:50.088Z,12.80
2022-09-14T06:11:18.944Z,12.80
2022-09-14T06:13:47.075Z,12.90
2022-09-14T06:16:19.077Z,12.90
2022-09-14T06:18:46.883Z,13.00
2022-09-14T06:21:16.589Z,13.10
2022-09-14T06:23:44.041Z,13.20
2022-09-14T06:26:11.033Z,13.30
2022-09-14T06:28:38.098Z,13.30
2022-09-14T06:31:07.436Z,13.30
2022-09-14T06:33:34.820Z,13.40
2022-09-14T06:36:12.225Z,13.50
2022-09-14T06:38:40.207Z,13.50
2022-09-14T06:41:09.093Z,13.50
2022-09-14T06:43:38.845Z,13.50
2022-09-14T06:46:19.986Z,13.50
2022-09-14T06:48:47.796Z,13.60
2022-09-14T06:51:34.967Z,13.70
2022-09-14T06:54:02.297Z,13.80
2022-09-14T06:56:31.713Z,13.80
2022-09-14T06:58:59.135Z,14.00
2022-09-14T07:01:26.761Z,14.00
2022-09-14T07:03:54.056Z,14.20
2022-09-14T07:06:22.830Z,14.20
2022-09-14T07:08:51.620Z,14.30
2022-09-14T07:11:20.407Z,14.30
2022-09-14T07:13:47.693Z,14.50
2022-09-14T07:16:15.233Z,14.60
2022-09-14T07:18:42.219Z,14.60
2022-09-14T07:21:16.398Z,14.80
2022-09-14T07:23:46.238Z,15.00
2022-09-14T07:26:18.733Z,15.10
2022-09-14T07:28:49.169Z,15.30
2022-09-14T07:31:15.708Z,15.40
2022-09-14T07:33:42.366Z,15.50
2022-09-14T07:36:11.019Z,15.70
2022-09-14T07:38:53.542Z,15.80
2022-09-14T07:41:22.413Z,15.80
2022-09-14T07:43:53.867Z,15.80
2022-09-14T07:46:21.658Z,15.90
2022-09-14T07:48:49.167Z,16.00
2022-09-14T07:51:16.016Z,15.90
2022-09-14T07:53:43.536Z,15.90
2022-09-14T07:56:11.644Z,15.90
2022-09-14T07:58:38.393Z,16.00
2022-09-14T08:01:11.917Z,16.00
2022-09-14T08:03:40.602Z,16.10
2022-09-14T08:06:10.773Z,16.30
2022-09-14T08:08:39.906Z,16.60
2022-09-14T08:11:11.016Z,16.70
2022-09-14T08:13:42.826Z,16.80
2022-09-14T08:16:10.400Z,16.90
2022-09-14T08:18:37.817Z,17.10
2022-09-14T08:21:09.014Z,17.10
2022-09-14T08:23:36.555Z,17.10
2022-09-14T08:26:13.937Z,17.10
2022-09-14T08:28:41.041Z,17.30
2022-09-14T08:31:15.884Z,17.60
2022-09-14T08:33:45.586Z,17.90
2022-09-14T08:36:14.522Z,18.10
2022-09-14T08:38:41.526Z,18.30
2022-09-14T08:41:30.128Z,18.30
2022-09-14T08:44:09.723Z,18.30
2022-09-14T08:46:44.449Z,18.20
2022-09-14T08:49:32.428Z,18.30
2022-09-14T08:51:59.183Z,18.40
2022-09-14T08:54:25.933Z,18.30
2022-09-14T08:57:08.192Z,18.40
2022-09-14T08:59:37.984Z,18.50
2022-09-14T09:02:27.500Z,18.60
2022-09-14T09:05:14.914Z,18.70
2022-09-14T09:08:12.727Z,18.60
2022-09-14T09:10:40.804Z,18.70
2022-09-14T09:13:12.722Z,18.80
2022-09-14T09:15:51.331Z,18.80
2022-09-14T09:18:24.170Z,18.80
2022-09-14T09:21:01.719Z,18.60
2022-09-14T09:23:29.693Z,18.60
2022-09-14T09:26:06.391Z,18.70
2022-09-14T09:28:34.251Z,18.80
2022-09-14T09:31:04.873Z,18.90
2022-09-14T09:33:32.182Z,19.10
2022-09-14T09:35:59.881Z,19.10
2022-09-14T09:38:29.065Z,19.20
2022-09-14T09:41:01.800Z,19.30
2022-09-14T09:43:48.310Z,19.30
2022-09-14T09:46:15.052Z,19.40
2022-09-14T09:48:44.930Z,19.20
2022-09-14T09:51:23.541Z,19.00
2022-09-14T09:54:13.359Z,18.90
2022-09-14T09:56:56.415Z,19.00
2022-09-14T09:59:38.665Z,19.00
2022-09-14T10:02:31.124Z,19.00
2022-09-14T10:05:02.155Z,19.10
2022-09-14T10:07:31.180Z,19.30
2022-09-14T10:10:07.269Z,19.40
2022-09-14T10:12:34.946Z,19.30
2022-09-14T10:15:17.292Z,19.10
2022-09-14T10:18:13.502Z,19.20
2022-09-14T10:20:42.230Z,19.20
2022-09-14T10:23:17.895Z,19.00
2022-09-14T10:25:50.145Z,19.20
2022-09-14T10:28:22.664Z,19.20
2022-09-14T10:31:08.623Z,19.20
2022-09-14T10:33:35.859Z,19.20
2022-09-14T10:36:31.969Z,19.00
2022-09-14T10:38:58.570Z,19.00
2022-09-14T10:41:37.033Z,19.00
2022-09-14T10:44:22.628Z,19.20
2022-09-14T10:47:10.040Z,19.30
2022-09-14T10:50:10.653Z,19.30
2022-09-14T10:52:43.832Z,19.20
2022-09-14T10:55:36.775Z,19.10
2022-09-14T10:58:30.269Z,18.80
2022-09-14T11:01:02.243Z,18.90
2022-09-14T11:03:34.652Z,19.20
2022-09-14T11:06:47.001Z,19.30
2022-09-14T11:10:06.617Z,19.30
2022-09-14T11:12:51.356Z,19.40
2022-09-14T11:15:37.252Z,19.60
2022-09-14T11:18:19.008Z,19.70
2022-09-14T11:21:24.676Z,19.70
2022-09-14T11:24:03.833Z,19.80
2022-09-14T11:26:44.544Z,19.90
2022-09-14T11:29:29.839Z,20.10
2022-09-14T11:32:21.480Z,20.10
2022-09-14T11:34:57.921Z,20.00
2022-09-14T11:37:55.075Z,20.00
2022-09-14T11:40:24.813Z,19.70
2022-09-14T11:43:09.647Z,19.70
2022-09-14T11:46:02.482Z,19.60
2022-09-14T11:48:42.709Z,19.70
2022-09-14T11:51:22.438Z,19.70
2022-09-14T11:53:50.684Z,19.60
2022-09-14T11:56:29.695Z,19.50
2022-09-14T11:59:05.478Z,19.60
2022-09-14T12:01:40.119Z,19.40
2022-09-14T12:04:16.189Z,19.20
2022-09-14T12:06:53.947Z,19.10
2022-09-14T12:09:21.201Z,19.10
2022-09-14T12:12:00.726Z,19.00
2022-09-14T12:14:27.490Z,18.90
2022-09-14T12:20:31.586Z,18.70
2022-09-14T12:23:20.907Z,18.60
2022-09-14T12:25:53.713Z,18.60
2022-09-14T12:28:40.049Z,18.60
2022-09-14T12:31:09.362Z,18.70
2022-09-14T12:33:43.006Z,18.70
2022-09-14T12:36:19.709Z,18.70
2022-09-14T12:38:53.062Z,18.80
2022-09-14T12:41:19.616Z,18.80
2022-09-14T12:43:47.186Z,18.80
2022-09-14T12:46:19.821Z,18.90
2022-09-14T12:48:50.617Z,18.90
2022-09-14T12:51:36.048Z,18.90
2022-09-14T12:54:08.950Z,18.70
2022-09-14T12:57:08.856Z,18.80
2022-09-14T13:00:02.708Z,18.70
2022-09-14T13:02:41.594Z,18.80
2022-09-14T13:05:17.974Z,18.60
2022-09-14T13:07:45.711Z,18.50
2022-09-14T13:10:33.442Z,18.60
2022-09-14T13:13:08.523Z,18.60
2022-09-14T13:15:45.169Z,18.50
2022-09-14T13:18:17.800Z,18.50
2022-09-14T13:20:53.086Z,18.40
2022-09-14T13:23:31.403Z,18.20
2022-09-14T13:25:59.167Z,18.20
2022-09-14T13:28:30.995Z,18.30
2022-09-14T13:31:00.187Z,18.30
2022-09-14T13:33:30.521Z,18.30
2022-09-14T13:36:01.025Z,18.30
2022-09-14T13:38:32.119Z,18.30
2022-09-14T13:41:11.935Z,18.30
2022-09-14T13:43:39.961Z,18.30
2022-09-14T13:46:11.508Z,18.30
2022-09-14T13:48:40.409Z,18.30
2022-09-14T13:51:08.703Z,18.30
2022-09-14T13:53:49.607Z,18.30
2022-09-14T13:56:42.395Z,18.40
2022-09-14T13:59:11.838Z,18.40
2022-09-14T14:01:46.268Z,18.40
2022-09-14T14:04:34.658Z,18.40
2022-09-14T14:07:06.065Z,18.30
2022-09-14T14:09:52.155Z,18.30
2022-09-14T14:12:39.264Z,18.30
2022-09-14T14:15:11.055Z,18.40
2022-09-14T14:17:39.851Z,18.30
2022-09-14T14:20:31.035Z,18.30
2022-09-14T14:23:02.082Z,18.30
2022-09-14T14:25:33.435Z,18.30
2022-09-14T14:28:02.739Z,18.30
2022-09-14T14:30:30.237Z,18.20
2022-09-14T14:32:58.746Z,18.20
2022-09-14T14:35:30.803Z,18.20
2022-09-14T14:37:58.433Z,18.20
2022-09-14T14:40:27.426Z,18.20
2022-09-14T14:42:55.133Z,18.20
2022-09-14T14:45:26.131Z,18.20
2022-09-14T14:47:54.636Z,18.20
2022-09-14T14:50:29.602Z,18.20
2022-09-14T14:52:56.887Z,18.10
2022-09-14T14:55:24.652Z,18.00
2022-09-14T14:57:53.158Z,18.10
2022-09-14T15:00:24.443Z,18.20
2022-09-14T15:02:51.838Z,18.20
2022-09-14T15:05:19.465Z,18.20
2022-09-14T15:07:46.689Z,18.20
2022-09-14T15:10:17.045Z,18.20
2022-09-14T15:12:44.160Z,18.20
2022-09-14T15:15:23.922Z,18.20
2022-09-14T15:17:51.563Z,18.10
2022-09-14T15:20:19.737Z,18.20
2022-09-14T15:22:47.694Z,18.30
2022-09-14T15:25:15.902Z,18.30
2022-09-14T15:27:42.570Z,18.20
2022-09-14T15:30:11.398Z,18.20
2022-09-14T15:32:38.584Z,18.20
2022-09-14T15:35:06.518Z,18.20
2022-09-14T15:37:33.171Z,18.30
2022-09-14T15:39:59.941Z,18.30
2022-09-14T15:42:27.111Z,18.40
2022-09-14T15:44:53.750Z,18.40
2022-09-14T15:47:20.382Z,18.40
2022-09-14T15:49:51.616Z,18.40
2022-09-14T15:52:18.558Z,18.40
2022-09-14T15:54:45.126Z,18.60
2022-09-14T15:57:12.512Z,18.70
2022-09-14T15:59:39.652Z,18.60
2022-09-14T16:02:06.911Z,18.70
2022-09-14T16:04:38.462Z,18.70
2022-09-14T16:07:09.619Z,18.70
2022-09-14T16:09:38.018Z,18.60
2022-09-14T16:12:05.090Z,18.50
2022-09-14T16:14:31.788Z,18.40
2022-09-14T16:17:01.308Z,18.30
2022-09-14T16:19:28.344Z,18.20
2022-09-14T16:21:55.314Z,18.20
2022-09-14T16:24:25.374Z,18.20
2022-09-14T16:26:52.304Z,18.10
2022-09-14T16:29:23.287Z,18.00
2022-09-14T16:31:52.769Z,17.80
2022-09-14T16:34:24.949Z,17.80
2022-09-14T16:36:54.513Z,17.70
2022-09-14T16:39:25.337Z,17.70
2022-09-14T16:41:56.797Z,17.70
2022-09-14T16:44:28.713Z,17.70
2022-09-14T16:46:59.036Z,17.60
2022-09-14T16:49:28.748Z,17.50
2022-09-14T16:52:01.627Z,17.40
2022-09-14T16:54:32.734Z,17.40
2022-09-14T16:57:02.259Z,17.40
2022-09-14T16:59:30.853Z,17.30
2022-09-14T17:01:59.287Z,17.30
2022-09-14T17:04:28.033Z,17.20
2022-09-14T17:06:57.940Z,17.10
2022-09-14T17:09:28.791Z,17.00
2022-09-14T17:11:58.321Z,16.90
2022-09-14T17:14:30.071Z,16.80
2022-09-14T17:17:00.775Z,16.70
2022-09-14T17:19:29.149Z,16.70
2022-09-14T17:21:57.278Z,16.60
2022-09-14T17:24:26.723Z,16.50
2022-09-14T17:26:54.838Z,16.40
2022-09-14T17:29:23.198Z,16.40
2022-09-14T17:31:51.593Z,16.30
2022-09-14T17:34:19.971Z,16.20
2022-09-14T17:36:48.305Z,16.10
2022-09-14T17:39:16.417Z,16.10
2022-09-14T17:41:44.906Z,16.00
2022-09-14T17:44:15.058Z,15.80
2022-09-14T17:46:51.178Z,15.60
2022-09-14T17:49:21.069Z,15.60
2022-09-14T17:51:48.099Z,15.50
2022-09-14T17:54:15.075Z,15.40
2022-09-14T17:56:42.013Z,15.30
2022-09-14T17:59:12.035Z,15.20
2022-09-14T18:01:38.673Z,15.20
2022-09-14T18:04:08.439Z,15.10
2022-09-14T18:06:38.303Z,15.10
2022-09-14T18:09:12.951Z,15.00
2022-09-14T18:11:40.123Z,15.00
2022-09-14T18:14:06.927Z,14.90
2022-09-14T18:16:34.007Z,14.80
2022-09-14T18:19:00.733Z,14.90
2022-09-14T18:21:27.608Z,14.80
2022-09-14T18:23:55.152Z,14.80
2022-09-14T18:26:23.235Z,14.80
2022-09-14T18:28:51.268Z,14.70
2022-09-14T18:31:19.641Z,14.70
2022-09-14T18:33:52.140Z,14.70
2022-09-14T18:36:19.883Z,14.70
2022-09-14T18:38:48.476Z,14.70
2022-09-14T18:41:16.757Z,14.70
2022-09-14T18:43:45.271Z,14.70
2022-09-14T18:46:12.878Z,14.60
2022-09-14T18:48:40.708Z,14.60
2022-09-14T18:51:08.202Z,14.60
2022-09-14T18:53:34.887Z,14.60
2022-09-14T18:56:14.625Z,14.60
2022-09-14T18:58:44.238Z,14.60
2022-09-14T19:01:12.265Z,14.50
2022-09-14T19:03:40.633Z,14.40
2022-09-14T19:06:12.285Z,14.40
2022-09-14T19:08:39.221Z,14.30
2022-09-14T19:11:18.523Z,14.30
2022-09-14T19:16:19.914Z,14.30
2022-09-14T19:18:48.470Z,14.20
2022-09-14T19:21:24.240Z,14.20
2022-09-14T19:24:02.347Z,14.10
2022-09-14T19:26:32.300Z,14.00
2022-09-14T19:29:00.591Z,14.00
2022-09-14T19:31:30.256Z,14.00
2022-09-14T19:33:58.113Z,13.90
2022-09-14T19:36:24.821Z,13.90
2022-09-14T19:38:52.041Z,13.80
2022-09-14T19:41:19.842Z,13.80
2022-09-14T19:43:47.469Z,13.70
2022-09-14T19:46:19.830Z,13.70
2022-09-14T19:48:46.704Z,13.70
2022-09-14T19:51:16.600Z,13.70
2022-09-14T19:53:45.565Z,13.60
2022-09-14T19:56:14.705Z,13.60
2022-09-14T19:58:47.412Z,13.60
2022-09-14T20:01:16.394Z,13.60
2022-09-14T20:03:44.488Z,13.60
2022-09-14T20:06:25.445Z,13.60
2022-09-14T20:09:30.085Z,13.60
2022-09-14T20:11:56.839Z,13.70
2022-09-14T20:14:25.058Z,13.70
2022-09-14T20:16:54.624Z,13.70
2022-09-14T20:19:23.688Z,13.60
2022-09-14T20:21:51.771Z,13.60
2022-09-14T20:24:25.477Z,13.70
2022-09-14T20:26:54.479Z,13.70
2022-09-14T20:29:22.952Z,13.80
2022-09-14T20:31:50.937Z,13.80
2022-09-14T20:34:20.359Z,13.80
2022-09-14T20:36:51.308Z,13.90
2022-09-14T20:39:19.074Z,14.00
2022-09-14T20:41:45.884Z,14.00
2022-09-14T20:44:13.780Z,14.00
2022-09-14T20:46:43.172Z,14.10
2022-09-14T20:49:15.798Z,14.20
2022-09-14T20:51:42.888Z,14.30
2022-09-14T20:54:14.394Z,14.20
2022-09-14T20:56:42.040Z,14.30
2022-09-14T20:59:16.422Z,14.30
2022-09-14T21:01:44.929Z,14.40
2022-09-14T21:04:14.432Z,14.40
2022-09-14T21:06:46.587Z,14.40
2022-09-14T21:09:14.569Z,14.40
2022-09-14T21:11:42.101Z,14.40
2022-09-14T21:14:09.009Z,14.50
2022-09-14T21:16:42.555Z,14.40
2022-09-14T21:19:21.035Z,14.50
2022-09-14T21:21:49.177Z,14.40
2022-09-14T21:24:17.404Z,14.40
2022-09-14T21:26:44.853Z,14.40
2022-09-14T21:29:18.096Z,14.40
2022-09-14T21:31:44.925Z,14.40
2022-09-14T21:34:12.323Z,14.50
2022-09-14T21:36:48.925Z,14.50
2022-09-14T21:39:18.309Z,14.50
2022-09-14T21:41:45.305Z,14.50
2022-09-14T21:44:13.391Z,14.40
2022-09-14T21:46:40.111Z,14.50
2022-09-14T21:49:06.967Z,14.40
2022-09-14T21:51:36.511Z,14.50
2022-09-14T21:54:06.490Z,14.50
2022-09-14T21:56:36.762Z,14.50
2022-09-14T21:59:05.878Z,14.40
2022-09-14T22:01:33.156Z,14.40
2022-09-14T22:04:00.290Z,14.40
2022-09-14T22:06:28.895Z,14.40
2022-09-14T22:08:58.405Z,14.40
2022-09-14T22:11:31.301Z,14.30
2022-09-14T22:14:06.590Z,14.30
2022-09-14T22:16:35.550Z,14.20
2022-09-14T22:19:04.303Z,14.20
2022-09-14T22:21:33.267Z,14.10
2022-09-14T22:24:02.035Z,14.10
2022-09-14T22:26:31.326Z,14.10
2022-09-14T22:28:58.847Z,14.00
2022-09-14T22:31:26.986Z,14.00
2022-09-14T22:33:55.442Z,13.90
2022-09-14T22:36:22.447Z,13.90
2022-09-14T22:38:49.022Z,13.90
2022-09-14T22:41:20.872Z,13.90
2022-09-14T22:43:47.605Z,13.90
2022-09-14T22:46:16.729Z,13.80
2022-09-14T22:48:44.023Z,13.80
2022-09-14T22:51:13.685Z,13.70
2022-09-14T22:53:40.255Z,13.70
2022-09-14T22:56:09.079Z,13.70
2022-09-14T22:58:36.266Z,13.60
2022-09-14T23:01:15.058Z,13.60
2022-09-14T23:03:42.087Z,13.60
2022-09-14T23:06:09.722Z,13.50
2022-09-14T23:08:37.257Z,13.50
2022-09-14T23:11:10.602Z,13.50
2022-09-14T23:13:39.781Z,13.50
2022-09-14T23:16:17.722Z,13.40
2022-09-14T23:18:44.500Z,13.40
2022-09-14T23:21:11.468Z,13.30
2022-09-14T23:23:38.373Z,13.30
2022-09-14T23:26:07.247Z,13.30
2022-09-14T23:28:34.482Z,13.30
2022-09-14T23:31:01.481Z,13.20
2022-09-14T23:33:29.461Z,13.20
2022-09-14T23:35:56.406Z,13.20
2022-09-14T23:38:23.847Z,13.10
2022-09-14T23:40:50.501Z,13.10
2022-09-14T23:43:18.322Z,13.10
2022-09-14T23:45:46.657Z,13.10
2022-09-14T23:48:14.045Z,13.00
2022-09-14T23:50:40.628Z,13.00
2022-09-14T23:53:07.287Z,13.00
2022-09-14T23:55:34.179Z,13.00
2022-09-14T23:58:00.733Z,12.90
